Time;durP1;ratioP1;P1;durP2;ratioP2;P2;SDS_P1;SDS_P2;PMS_P1;PMS_P2;Temp;Humidity;BMP_temperature;BMP_pressure;BME280_temperature;BME280_humidity;BME280_pressure;Samples;Min_cycle;Max_cycle;Signal;HPM_P1;HPM_P2
2021/09/01 00:00:09;;;;;;;;;;;16.20;99.90;;;;;;5018708;28;19913;-91
2021/09/01 00:02:35;;;;;;;;;;;16.20;99.90;;;;;;5015868;28;20000;-91
2021/09/01 00:05:00;;;;;;;;;;;16.40;99.90;;;;;;5011728;28;19932;-91
2021/09/01 00:07:29;;;;;;;;;;;16.20;99.90;;;;;;5015862;28;19928;-90
2021/09/01 00:09:59;;;;;;;;;;;16.50;99.90;;;;;;5016842;28;19913;-88
2021/09/01 00:12:27;;;;;;;;;;;16.40;99.90;;;;;;5017891;28;19917;-93
2021/09/01 00:14:52;;;;;;;;;;;16.40;99.90;;;;;;4999995;28;19925;-93
2021/09/01 00:17:20;;;;;;;;;;;16.20;99.90;;;;;;5014527;28;20370;-93
2021/09/01 00:19:46;;;;;;;;;;;16.20;99.90;;;;;;5014621;28;19920;-93
2021/09/01 00:22:11;;;;;;;;;;;16.20;99.90;;;;;;5016941;28;19909;-90
2021/09/01 00:24:37;;;;;;;;;;;16.20;99.90;;;;;;5013499;28;20253;-90
2021/09/01 00:27:02;;;;;;;;;;;16.40;99.90;;;;;;4998889;28;19905;-92
2021/09/01 00:29:28;;;;;;;;;;;16.20;99.90;;;;;;5001371;28;19928;-92
2021/09/01 00:31:53;;;;;;;;;;;16.40;99.90;;;;;;5002707;28;19917;-93
2021/09/01 00:34:21;;;;;;;;;;;16.20;99.90;;;;;;4997805;28;20408;-92
2021/09/01 00:36:47;;;;;;;;;;;16.20;99.90;;;;;;5015437;28;19928;-93
2021/09/01 00:39:14;;;;;;;;;;;16.20;99.90;;;;;;5017812;28;19925;-90
2021/09/01 00:41:43;;;;;;;;;;;16.10;99.90;;;;;;5016415;28;19925;-92
2021/09/01 00:44:16;;;;;;;;;;;16.10;99.90;;;;;;5017018;28;19940;-92
2021/09/01 00:46:42;;;;;;;;;;;16.10;99.90;;;;;;5016010;28;20309;-91
2021/09/01 00:49:10;;;;;;;;;;;16.20;99.90;;;;;;5014638;28;19917;-92
2021/09/01 00:51:36;;;;;;;;;;;16.10;99.90;;;;;;5018636;28;19923;-93
2021/09/01 00:54:02;;;;;;;;;;;16.40;99.90;;;;;;5016381;28;19914;-91
2021/09/01 00:56:27;;;;;;;;;;;16.40;99.90;;;;;;5003707;28;20325;-92
2021/09/01 00:58:55;;;;;;;;;;;16.10;99.90;;;;;;5000628;28;20020;-92
2021/09/01 01:01:21;;;;;;;;;;;16.10;99.90;;;;;;5015064;28;19924;-90
2021/09/01 01:03:56;;;;;;;;;;;16.10;99.90;;;;;;5002272;28;19910;-92
2021/09/01 01:06:25;;;;;;;;;;;16.10;99.90;;;;;;5016689;28;19928;-92
2021/09/01 01:08:54;;;;;;;;;;;16.10;99.90;;;;;;5017647;28;19909;-92
2021/09/01 01:11:20;;;;;;;;;;;16.10;99.90;;;;;;5003298;28;19913;-92
2021/09/01 01:13:46;;;;;;;;;;;16.30;99.90;;;;;;5007628;28;19915;-93
2021/09/01 01:16:12;;;;;;;;;;;16.10;99.90;;;;;;5018015;28;19924;-92
2021/09/01 01:18:38;;;;;;;;;;;16.00;99.90;;;;;;5012606;28;20451;-91
2021/09/01 01:21:03;;;;;;;;;;;16.00;99.90;;;;;;5016289;28;19909;-92
2021/09/01 01:23:29;;;;;;;;;;;16.20;99.90;;;;;;5019685;28;19909;-92
2021/09/01 01:25:54;;;;;;;;;;;16.00;99.90;;;;;;5015887;28;20018;-92
2021/09/01 01:28:22;;;;;;;;;;;16.20;99.90;;;;;;4996453;28;19939;-91
2021/09/01 01:30:48;;;;;;;;;;;16.00;99.90;;;;;;5016776;28;19917;-92
2021/09/01 01:33:14;;;;;;;;;;;16.00;99.90;;;;;;5021205;28;19920;-93
2021/09/01 01:35:43;;;;;;;;;;;16.10;99.90;;;;;;5022879;28;20289;-92
2021/09/01 01:38:11;;;;;;;;;;;16.00;99.90;;;;;;5001180;28;19921;-93
2021/09/01 01:40:37;;;;;;;;;;;16.00;99.90;;;;;;5021262;28;19932;-92
2021/09/01 01:43:03;;;;;;;;;;;16.00;99.90;;;;;;5024146;28;20141;-93
2021/09/01 01:45:38;;;;;;;;;;;16.00;99.90;;;;;;5007449;28;19921;-92
2021/09/01 01:48:05;;;;;;;;;;;16.00;99.90;;;;;;5016347;28;19916;-94
2021/09/01 01:50:31;;;;;;;;;;;16.00;99.90;;;;;;5026248;28;20343;-91
2021/09/01 01:52:58;;;;;;;;;;;16.00;99.90;;;;;;5025103;28;20246;-92
2021/09/01 01:55:31;;;;;;;;;;;16.00;99.90;;;;;;5020882;28;19996;-92
2021/09/01 01:57:57;;;;;;;;;;;16.00;99.90;;;;;;5022765;28;20392;-91
2021/09/01 02:00:25;;;;;;;;;;;16.00;99.90;;;;;;5004441;28;20016;-91
2021/09/01 02:02:53;;;;;;;;;;;16.00;99.90;;;;;;5019549;28;19972;-91
2021/09/01 02:05:18;;;;;;;;;;;16.00;99.90;;;;;;5018892;28;19971;-91
2021/09/01 02:07:44;;;;;;;;;;;16.00;99.90;;;;;;5005809;28;19913;-92
2021/09/01 02:10:13;;;;;;;;;;;16.00;99.90;;;;;;5005998;28;20289;-91
2021/09/01 02:12:41;;;;;;;;;;;16.00;99.90;;;;;;5021030;28;19951;-92
2021/09/01 02:15:07;;;;;;;;;;;16.00;99.90;;;;;;5009915;28;19916;-92
2021/09/01 02:17:36;;;;;;;;;;;16.00;99.90;;;;;;5020103;28;19917;-91
2021/09/01 02:20:03;;;;;;;;;;;16.00;99.90;;;;;;5010226;28;19917;-91
2021/09/01 02:22:29;;;;;;;;;;;16.00;99.90;;;;;;5002679;28;20274;-92
2021/09/01 02:24:54;;;;;;;;;;;16.00;99.90;;;;;;5011748;28;19921;-92
2021/09/01 02:27:20;;;;;;;;;;;16.30;99.90;;;;;;5018636;28;20379;-91
2021/09/01 02:29:48;;;;;;;;;;;16.10;99.90;;;;;;5024261;28;20390;-91
2021/09/01 02:32:13;;;;;;;;;;;15.90;99.90;;;;;;5004708;28;20485;-91
2021/09/01 02:34:41;;;;;;;;;;;15.90;99.90;;;;;;5000098;28;19908;-91
2021/09/01 02:37:08;;;;;;;;;;;16.00;99.90;;;;;;5024515;28;19978;-90
2021/09/01 02:39:36;;;;;;;;;;;16.00;99.90;;;;;;5017153;28;20036;-91
2021/09/01 02:42:04;;;;;;;;;;;15.90;99.90;;;;;;5001634;28;20998;-90
2021/09/01 02:44:29;;;;;;;;;;;16.00;99.90;;;;;;5006826;28;19933;-90
2021/09/01 02:46:55;;;;;;;;;;;15.90;99.90;;;;;;5020701;28;19916;-91
2021/09/01 02:49:20;;;;;;;;;;;15.90;99.90;;;;;;5025077;28;20094;-92
2021/09/01 02:51:53;;;;;;;;;;;15.90;99.90;;;;;;5009221;28;20331;-91
2021/09/01 02:54:21;;;;;;;;;;;15.90;99.90;;;;;;5017815;28;19909;-91
2021/09/01 02:56:46;;;;;;;;;;;15.90;99.90;;;;;;5003840;28;19960;-91
2021/09/01 02:59:12;;;;;;;;;;;15.90;99.90;;;;;;5020396;28;19909;-91
2021/09/01 03:01:37;;;;;;;;;;;15.90;99.90;;;;;;5015926;28;19970;-90
2021/09/01 03:04:03;;;;;;;;;;;15.90;99.90;;;;;;5017847;28;19917;-91
2021/09/01 03:06:29;;;;;;;;;;;15.90;99.90;;;;;;5017088;28;20023;-91
2021/09/01 03:08:54;;;;;;;;;;;15.90;99.90;;;;;;5020775;28;19956;-90
2021/09/01 03:11:27;;;;;;;;;;;15.90;99.90;;;;;;5020357;28;19917;-90
2021/09/01 03:13:52;;;;;;;;;;;15.90;99.90;;;;;;5019494;28;19968;-91
2021/09/01 03:16:20;;;;;;;;;;;15.90;99.90;;;;;;5019576;28;19928;-91
2021/09/01 03:18:45;;;;;;;;;;;16.00;99.90;;;;;;5005309;28;19965;-92
2021/09/01 03:21:11;;;;;;;;;;;16.00;99.90;;;;;;5006804;28;19909;-91
2021/09/01 03:23:36;;;;;;;;;;;15.90;99.90;;;;;;5025871;28;19913;-92
2021/09/01 03:26:05;;;;;;;;;;;15.90;99.90;;;;;;5003803;28;20267;-91
2021/09/01 03:28:30;;;;;;;;;;;15.90;99.90;;;;;;5026130;28;19928;-91
2021/09/01 03:30:58;;;;;;;;;;;15.90;99.90;;;;;;5005581;28;19992;-92
2021/09/01 03:33:24;;;;;;;;;;;16.00;99.90;;;;;;5004745;28;19936;-92
2021/09/01 03:35:49;;;;;;;;;;;15.80;99.90;;;;;;5013424;28;19917;-89
2021/09/01 03:38:17;;;;;;;;;;;15.80;99.90;;;;;;5007835;28;19943;-91
2021/09/01 03:40:45;;;;;;;;;;;16.00;99.90;;;;;;5016584;28;19910;-93
2021/09/01 03:43:13;;;;;;;;;;;15.90;99.90;;;;;;5017943;28;19994;-92
2021/09/01 03:45:38;;;;;;;;;;;15.90;99.90;;;;;;5021593;28;19925;-91
2021/09/01 03:48:04;;;;;;;;;;;15.80;99.90;;;;;;5016039;28;20135;-91
2021/09/01 03:50:30;;;;;;;;;;;15.90;99.90;;;;;;5014647;28;19913;-90
2021/09/01 03:52:55;;;;;;;;;;;15.80;99.90;;;;;;5011543;28;20354;-91
2021/09/01 03:55:21;;;;;;;;;;;15.80;99.90;;;;;;5012564;28;19939;-91
2021/09/01 03:57:48;;;;;;;;;;;15.80;99.90;;;;;;5020210;28;19938;-90
2021/09/01 04:00:14;;;;;;;;;;;15.80;99.90;;;;;;5002995;28;19913;-90
2021/09/01 04:02:39;;;;;;;;;;;15.80;99.90;;;;;;5020918;28;19994;-92
2021/09/01 04:05:08;;;;;;;;;;;15.80;99.90;;;;;;5019952;28;20378;-92
2021/09/01 04:07:36;;;;;;;;;;;15.80;99.90;;;;;;5022105;28;20370;-92
2021/09/01 04:10:01;;;;;;;;;;;15.80;99.90;;;;;;5005838;28;20337;-90
2021/09/01 04:12:27;;;;;;;;;;;15.80;99.90;;;;;;5004915;28;19939;-91
2021/09/01 04:14:52;;;;;;;;;;;15.70;99.90;;;;;;5016681;28;19971;-91
2021/09/01 04:17:18;;;;;;;;;;;15.80;99.90;;;;;;5009841;28;20289;-91
2021/09/01 04:19:46;;;;;;;;;;;15.80;99.90;;;;;;5020039;28;20476;-91
2021/09/01 04:22:14;;;;;;;;;;;15.80;99.90;;;;;;5022798;28;20284;-91
2021/09/01 04:24:39;;;;;;;;;;;15.80;99.90;;;;;;5020907;28;20471;-91
2021/09/01 04:27:12;;;;;;;;;;;15.70;99.90;;;;;;5020085;28;19913;-90
2021/09/01 04:29:38;;;;;;;;;;;15.70;99.90;;;;;;5025445;28;19977;-90
2021/09/01 04:32:03;;;;;;;;;;;15.60;99.90;;;;;;5022436;28;20039;-90
2021/09/01 04:34:29;;;;;;;;;;;15.60;99.90;;;;;;5009721;28;19924;-91
2021/09/01 04:36:57;;;;;;;;;;;15.60;99.90;;;;;;5021551;28;19913;-91
2021/09/01 04:39:25;;;;;;;;;;;15.60;99.90;;;;;;5025808;28;19917;-91
2021/09/01 04:41:50;;;;;;;;;;;15.60;99.90;;;;;;5019301;28;20542;-91
2021/09/01 04:44:16;;;;;;;;;;;15.70;99.90;;;;;;5022798;28;19917;-90
2021/09/01 04:46:43;;;;;;;;;;;15.60;99.90;;;;;;5010536;28;19921;-91
2021/09/01 04:49:09;;;;;;;;;;;15.60;99.90;;;;;;5010467;28;19919;-91
2021/09/01 04:51:34;;;;;;;;;;;15.60;99.90;;;;;;5033399;28;19972;-90
2021/09/01 04:54:00;;;;;;;;;;;15.60;99.90;;;;;;5001990;28;19924;-88
2021/09/01 04:56:26;;;;;;;;;;;15.60;99.90;;;;;;4999008;28;19928;-88
2021/09/01 04:58:52;;;;;;;;;;;15.60;99.90;;;;;;5017239;28;19924;-90
2021/09/01 05:01:20;;;;;;;;;;;15.60;99.90;;;;;;5004072;28;19914;-90
2021/09/01 05:03:45;;;;;;;;;;;15.70;99.90;;;;;;5023374;28;20000;-90
2021/09/01 05:06:11;;;;;;;;;;;15.70;99.90;;;;;;5016855;28;19980;-89
2021/09/01 05:08:36;;;;;;;;;;;15.70;99.90;;;;;;5021984;28;21121;-91
2021/09/01 05:11:02;;;;;;;;;;;15.90;99.90;;;;;;5006081;28;19913;-91
2021/09/01 05:13:27;;;;;;;;;;;15.70;99.90;;;;;;4997390;28;20336;-90
2021/09/01 05:15:53;;;;;;;;;;;15.70;99.90;;;;;;5019202;28;19917;-89
2021/09/01 05:18:18;;;;;;;;;;;15.60;99.90;;;;;;5019153;28;19986;-90
2021/09/01 05:20:46;;;;;;;;;;;15.60;99.90;;;;;;5022646;28;20332;-91
2021/09/01 05:23:11;;;;;;;;;;;15.70;99.90;;;;;;5015877;28;19910;-90
2021/09/01 05:25:53;;;;;;;;;;;15.70;99.90;;;;;;5025886;28;19924;-89
2021/09/01 05:28:26;;;;;;;;;;;15.70;99.90;;;;;;5019185;28;19924;-91
2021/09/01 05:30:51;;;;;;;;;;;15.70;99.90;;;;;;5044707;28;19921;-91
2021/09/01 05:33:19;;;;;;;;;;;15.70;99.90;;;;;;5029222;28;19916;-90
2021/09/01 05:35:51;;;;;;;;;;;15.70;99.90;;;;;;5025096;28;19993;-90
2021/09/01 05:38:18;;;;;;;;;;;15.70;99.90;;;;;;5029788;28;19935;-90
2021/09/01 05:40:45;;;;;;;;;;;15.70;99.90;;;;;;5029412;28;22670;-91
2021/09/01 05:43:10;;;;;;;;;;;15.60;99.90;;;;;;5022297;28;19970;-91
2021/09/01 05:45:36;;;;;;;;;;;15.60;99.90;;;;;;5028127;28;20449;-90
2021/09/01 05:48:02;;;;;;;;;;;15.60;99.90;;;;;;5009813;28;19917;-91
2021/09/01 05:50:33;;;;;;;;;;;15.60;99.90;;;;;;5031952;28;19920;-91
2021/09/01 05:52:59;;;;;;;;;;;15.50;99.90;;;;;;5012353;28;19920;-91
2021/09/01 05:55:28;;;;;;;;;;;15.60;99.90;;;;;;5023224;28;19913;-91
2021/09/01 05:57:55;;;;;;;;;;;15.60;99.90;;;;;;5010321;28;19914;-91
2021/09/01 06:00:21;;;;;;;;;;;15.60;99.90;;;;;;5027866;28;19979;-90
2021/09/01 06:02:53;;;;;;;;;;;15.60;99.90;;;;;;5027235;28;19917;-90
2021/09/01 06:05:20;;;;;;;;;;;15.60;99.90;;;;;;5019286;28;19921;-89
2021/09/01 06:07:55;;;;;;;;;;;15.60;99.90;;;;;;5022095;28;20487;-91
2021/09/01 06:10:23;;;;;;;;;;;15.60;99.90;;;;;;5030334;28;19990;-90
2021/09/01 06:12:52;;;;;;;;;;;15.60;99.90;;;;;;5016142;28;19963;-91
2021/09/01 06:15:17;;;;;;;;;;;15.60;99.90;;;;;;5025303;28;19917;-90
2021/09/01 06:17:43;;;;;;;;;;;15.60;99.90;;;;;;5016566;28;20318;-89
2021/09/01 06:20:08;;;;;;;;;;;15.60;99.90;;;;;;5031204;28;20282;-91
2021/09/01 06:22:34;;;;;;;;;;;15.70;99.90;;;;;;5030346;28;19917;-91
2021/09/01 06:25:00;;;;;;;;;;;15.70;99.90;;;;;;5022890;28;20432;-90
2021/09/01 06:27:26;;;;;;;;;;;15.70;99.90;;;;;;5041352;28;19920;-90
2021/09/01 06:29:51;;;;;;;;;;;15.70;99.90;;;;;;5005475;28;19931;-91
2021/09/01 06:32:17;;;;;;;;;;;15.70;99.90;;;;;;5029219;28;20016;-91
2021/09/01 06:34:42;;;;;;;;;;;15.70;99.90;;;;;;5025120;28;19953;-91
2021/09/01 06:37:07;;;;;;;;;;;16.10;99.90;;;;;;5016663;28;19912;-91
2021/09/01 06:39:33;;;;;;;;;;;15.80;99.90;;;;;;5025656;28;20008;-91
2021/09/01 06:41:58;;;;;;;;;;;15.80;99.90;;;;;;5026029;28;19913;-91
2021/09/01 06:44:24;;;;;;;;;;;15.80;99.90;;;;;;5027681;28;20329;-90
2021/09/01 06:46:49;;;;;;;;;;;15.80;99.90;;;;;;5021158;28;19913;-91
2021/09/01 06:49:15;;;;;;;;;;;15.70;99.90;;;;;;5023634;28;19909;-91
2021/09/01 06:51:40;;;;;;;;;;;15.70;99.90;;;;;;5013299;28;19964;-90
2021/09/01 06:54:06;;;;;;;;;;;15.80;99.90;;;;;;5025045;28;20332;-90
2021/09/01 06:56:31;;;;;;;;;;;15.80;99.90;;;;;;5025323;28;20373;-90
2021/09/01 06:58:57;;;;;;;;;;;15.90;99.90;;;;;;5022440;28;20331;-90
2021/09/01 07:01:24;;;;;;;;;;;15.90;99.90;;;;;;5021619;28;19913;-90
2021/09/01 07:03:53;;;;;;;;;;;16.00;99.90;;;;;;5022617;28;19992;-90
2021/09/01 07:06:19;;;;;;;;;;;16.00;99.90;;;;;;5028202;28;20020;-91
2021/09/01 07:08:45;;;;;;;;;;;16.10;99.90;;;;;;5029497;28;20046;-91
2021/09/01 07:11:10;;;;;;;;;;;16.10;99.90;;;;;;5025476;28;19928;-90
2021/09/01 07:13:36;;;;;;;;;;;16.20;99.90;;;;;;5019003;28;20465;-91
2021/09/01 07:16:01;;;;;;;;;;;16.30;99.90;;;;;;5023645;28;19993;-89
2021/09/01 07:18:26;;;;;;;;;;;16.30;99.90;;;;;;5029211;28;20341;-92
2021/09/01 07:20:52;;;;;;;;;;;16.30;99.90;;;;;;5024568;28;20372;-91
2021/09/01 07:23:17;;;;;;;;;;;16.40;99.90;;;;;;5025837;28;19910;-90
2021/09/01 07:25:43;;;;;;;;;;;16.40;99.90;;;;;;5024803;28;19913;-89
2021/09/01 07:28:08;;;;;;;;;;;16.40;99.90;;;;;;5030272;28;20593;-90
2021/09/01 07:30:34;;;;;;;;;;;16.20;99.90;;;;;;5027823;28;19975;-90
2021/09/01 07:32:59;;;;;;;;;;;16.50;99.90;;;;;;5028612;28;19928;-90
2021/09/01 07:35:25;;;;;;;;;;;16.50;99.90;;;;;;5017564;28;19963;-89
2021/09/01 07:37:51;;;;;;;;;;;16.50;99.90;;;;;;5022960;28;19949;-90
2021/09/01 07:40:18;;;;;;;;;;;16.60;99.90;;;;;;5010558;28;19921;-89
2021/09/01 07:42:44;;;;;;;;;;;16.60;99.90;;;;;;5025317;28;20437;-90
2021/09/01 07:45:10;;;;;;;;;;;16.60;99.90;;;;;;5021410;28;19956;-89
2021/09/01 07:47:35;;;;;;;;;;;16.70;99.90;;;;;;5023652;28;19928;-89
2021/09/01 07:50:01;;;;;;;;;;;16.70;99.90;;;;;;5019876;28;20346;-90
2021/09/01 07:52:27;;;;;;;;;;;16.80;99.90;;;;;;5022632;28;19905;-89
2021/09/01 07:54:52;;;;;;;;;;;16.90;99.90;;;;;;5034074;28;19917;-89
2021/09/01 07:57:18;;;;;;;;;;;16.90;99.90;;;;;;5032661;28;19917;-90
2021/09/01 07:59:43;;;;;;;;;;;17.00;99.90;;;;;;5029556;28;19951;-90
2021/09/01 08:02:09;;;;;;;;;;;17.10;99.90;;;;;;5021601;28;19963;-88
2021/09/01 08:04:34;;;;;;;;;;;17.20;99.90;;;;;;5027070;28;19981;-89
2021/09/01 08:06:59;;;;;;;;;;;17.20;99.90;;;;;;5026891;28;20392;-90
2021/09/01 08:09:25;;;;;;;;;;;17.30;99.90;;;;;;5023271;28;19943;-90
2021/09/01 08:11:53;;;;;;;;;;;17.40;99.90;;;;;;5022563;28;19952;-90
2021/09/01 08:14:19;;;;;;;;;;;17.50;99.90;;;;;;5023668;28;19909;-90
2021/09/01 08:16:44;;;;;;;;;;;17.60;99.90;;;;;;5025263;28;19971;-89
2021/09/01 08:19:10;;;;;;;;;;;17.60;99.90;;;;;;5023025;28;19919;-90
2021/09/01 08:21:35;;;;;;;;;;;17.60;99.90;;;;;;5010407;28;19917;-89
2021/09/01 08:24:00;;;;;;;;;;;17.70;99.90;;;;;;5026429;28;20376;-91
2021/09/01 08:26:26;;;;;;;;;;;17.90;99.90;;;;;;5020577;28;20312;-89
2021/09/01 08:28:51;;;;;;;;;;;18.00;99.90;;;;;;5030879;28;19928;-88
2021/09/01 08:31:17;;;;;;;;;;;18.10;99.90;;;;;;5028166;28;20512;-89
2021/09/01 08:33:43;;;;;;;;;;;18.20;99.90;;;;;;5024538;28;19909;-89
2021/09/01 08:36:09;;;;;;;;;;;18.20;99.90;;;;;;5024919;28;19997;-89
2021/09/01 08:38:34;;;;;;;;;;;18.20;99.90;;;;;;5007791;28;20123;-89
2021/09/01 08:41:00;;;;;;;;;;;18.30;99.90;;;;;;5021620;28;19916;-89
2021/09/01 08:43:26;;;;;;;;;;;18.30;99.90;;;;;;5027127;28;19913;-89
2021/09/01 08:45:51;;;;;;;;;;;18.40;99.90;;;;;;5017902;28;19923;-88
2021/09/01 08:48:17;;;;;;;;;;;18.50;99.90;;;;;;5016135;28;19921;-89
2021/09/01 08:50:43;;;;;;;;;;;18.70;99.90;;;;;;5022473;28;19975;-91
2021/09/01 08:53:09;;;;;;;;;;;18.80;99.90;;;;;;5025967;28;20315;-89
2021/09/01 08:55:34;;;;;;;;;;;18.80;99.90;;;;;;5025283;28;20513;-89
2021/09/01 08:58:00;;;;;;;;;;;18.90;99.90;;;;;;5024961;28;19914;-89
2021/09/01 09:00:25;;;;;;;;;;;19.00;99.90;;;;;;5027287;28;20309;-90
2021/09/01 09:02:52;;;;;;;;;;;19.10;99.90;;;;;;5009698;28;19917;-90
2021/09/01 09:05:24;;;;;;;;;;;19.10;99.90;;;;;;5023471;28;19925;-89
2021/09/01 09:07:55;;;;;;;;;;;19.00;99.90;;;;;;5021786;28;19923;-89
2021/09/01 09:10:32;;;;;;;;;;;19.20;99.90;;;;;;5024910;28;20007;-87
2021/09/01 09:12:59;;;;;;;;;;;19.20;99.90;;;;;;5022503;28;20759;-89
2021/09/01 09:15:25;;;;;;;;;;;19.30;99.90;;;;;;5023205;28;19913;-87
2021/09/01 09:17:50;;;;;;;;;;;19.40;99.90;;;;;;5009704;28;19919;-88
2021/09/01 09:20:23;;;;;;;;;;;19.50;99.90;;;;;;5024559;28;19921;-88
2021/09/01 09:22:49;;;;;;;;;;;19.40;99.90;;;;;;5006075;28;20000;-88
2021/09/01 09:25:14;;;;;;;;;;;19.60;99.90;;;;;;5008541;28;19999;-88
2021/09/01 09:27:48;;;;;;;;;;;19.70;99.90;;;;;;5025914;28;19980;-88
2021/09/01 09:30:19;;;;;;;;;;;19.90;99.90;;;;;;5023296;28;19999;-88
2021/09/01 09:33:03;;;;;;;;;;;20.10;99.90;;;;;;5021366;28;19970;-88
2021/09/01 09:35:47;;;;;;;;;;;20.20;99.90;;;;;;5024738;28;19944;-88
2021/09/01 09:38:14;;;;;;;;;;;20.30;99.90;;;;;;5025930;28;20341;-88
2021/09/01 09:40:39;;;;;;;;;;;20.20;99.90;;;;;;5029579;28;20051;-87
2021/09/01 09:43:31;;;;;;;;;;;20.40;99.90;;;;;;5027697;28;20011;-86
2021/09/01 09:45:59;;;;;;;;;;;20.30;99.90;;;;;;5018741;28;19921;-87
2021/09/01 09:48:28;;;;;;;;;;;20.30;99.90;;;;;;5022125;28;20295;-87
2021/09/01 09:50:54;;;;;;;;;;;20.40;99.90;;;;;;5020759;28;19958;-90
2021/09/01 09:53:37;;;;;;;;;;;20.50;99.90;;;;;;5021735;28;20035;-89
2021/09/01 09:56:06;;;;;;;;;;;20.60;99.90;;;;;;5020565;28;19917;-88
2021/09/01 09:58:33;;;;;;;;;;;20.90;99.90;;;;;;5008443;28;19913;-87
2021/09/01 10:01:02;;;;;;;;;;;20.80;99.90;;;;;;5024412;28;19924;-87
2021/09/01 10:03:28;;;;;;;;;;;20.80;99.90;;;;;;5023250;28;19917;-88
2021/09/01 10:05:53;;;;;;;;;;;20.90;99.90;;;;;;5028827;28;20325;-88
2021/09/01 10:08:19;;;;;;;;;;;21.00;99.90;;;;;;5029024;28;19920;-88
2021/09/01 10:10:44;;;;;;;;;;;21.10;99.90;;;;;;5028793;28;19980;-88
2021/09/01 10:13:13;;;;;;;;;;;21.10;99.90;;;;;;5025780;28;19920;-90
2021/09/01 10:15:39;;;;;;;;;;;21.20;99.90;;;;;;5027997;28;19923;-87
2021/09/01 10:18:06;;;;;;;;;;;21.50;99.90;;;;;;5006689;28;19917;-87
2021/09/01 10:20:32;;;;;;;;;;;21.40;99.90;;;;;;5019530;28;20055;-87
2021/09/01 10:23:02;;;;;;;;;;;21.70;99.90;;;;;;5024535;28;19963;-87
2021/09/01 10:25:32;;;;;;;;;;;21.50;99.90;;;;;;5025030;28;19939;-87
2021/09/01 10:28:17;;;;;;;;;;;21.50;99.90;;;;;;5034243;28;19930;-87
2021/09/01 10:31:01;;;;;;;;;;;21.60;99.90;;;;;;5037237;28;19941;-87
2021/09/01 10:33:34;;;;;;;;;;;21.70;99.90;;;;;;5024102;28;19916;-87
2021/09/01 10:35:59;;;;;;;;;;;21.60;99.90;;;;;;5023710;28;19917;-87
2021/09/01 10:38:31;;;;;;;;;;;21.70;99.90;;;;;;5023117;28;19921;-87
2021/09/01 10:41:03;;;;;;;;;;;21.80;99.90;;;;;;5018988;28;19909;-86
2021/09/01 10:43:29;;;;;;;;;;;22.00;99.90;;;;;;5021444;28;20902;-86
2021/09/01 10:45:55;;;;;;;;;;;22.20;99.90;;;;;;5030351;28;19909;-87
2021/09/01 10:48:22;;;;;;;;;;;22.10;99.90;;;;;;5022911;28;19920;-87
2021/09/01 10:50:51;;;;;;;;;;;22.20;99.90;;;;;;5024651;28;19909;-87
2021/09/01 10:53:28;;;;;;;;;;;22.10;99.90;;;;;;5026351;28;19948;-87
2021/09/01 10:56:04;;;;;;;;;;;22.20;99.90;;;;;;5026658;28;19921;-87
2021/09/01 10:58:31;;;;;;;;;;;22.30;99.90;;;;;;5032672;28;19917;-86
2021/09/01 11:00:57;;;;;;;;;;;22.60;99.90;;;;;;5027549;28;19913;-89
2021/09/01 11:03:30;;;;;;;;;;;22.40;99.90;;;;;;5026116;28;19909;-87
2021/09/01 11:06:08;;;;;;;;;;;22.40;99.90;;;;;;5021949;28;20338;-86
2021/09/01 11:08:34;;;;;;;;;;;22.50;99.90;;;;;;5028751;28;20309;-87
2021/09/01 11:10:59;;;;;;;;;;;22.90;99.90;;;;;;5029809;28;19917;-87
2021/09/01 11:13:43;;;;;;;;;;;22.80;99.90;;;;;;5031416;28;20003;-87
2021/09/01 11:16:21;;;;;;;;;;;23.00;99.90;;;;;;5019957;28;19917;-87
2021/09/01 11:19:02;;;;;;;;;;;23.10;99.90;;;;;;5026878;28;19913;-89
2021/09/01 11:21:29;;;;;;;;;;;23.40;99.90;;;;;;5023248;28;19920;-88
2021/09/01 11:23:56;;;;;;;;;;;23.50;99.90;;;;;;5028099;28;20394;-87
2021/09/01 11:26:26;;;;;;;;;;;23.30;99.90;;;;;;5028917;28;19952;-87
2021/09/01 11:28:51;;;;;;;;;;;23.40;99.90;;;;;;5030781;28;19916;-87
2021/09/01 11:31:18;;;;;;;;;;;23.40;99.90;;;;;;5027712;28;19912;-87
2021/09/01 11:33:43;;;;;;;;;;;23.50;99.90;;;;;;5018207;28;19909;-87
2021/09/01 11:36:08;;;;;;;;;;;23.70;99.90;;;;;;5028388;28;20070;-88
2021/09/01 11:38:43;;;;;;;;;;;23.80;99.90;;;;;;5026445;28;19921;-88
2021/09/01 11:41:08;;;;;;;;;;;23.80;99.90;;;;;;5025667;28;19936;-87
2021/09/01 11:43:34;;;;;;;;;;;23.90;99.90;;;;;;5030432;28;19939;-87
2021/09/01 11:45:59;;;;;;;;;;;24.30;99.90;;;;;;5011605;28;19917;-88
2021/09/01 11:48:24;;;;;;;;;;;24.20;99.90;;;;;;5024307;28;19948;-87
2021/09/01 11:50:53;;;;;;;;;;;24.40;99.90;;;;;;5027150;28;19913;-88
2021/09/01 11:53:20;;;;;;;;;;;24.40;99.90;;;;;;5026447;28;19914;-88
2021/09/01 11:55:45;;;;;;;;;;;24.50;99.90;;;;;;5028959;28;20215;-87
2021/09/01 11:58:17;;;;;;;;;;;24.70;99.90;;;;;;5026930;28;19978;-87
2021/09/01 12:00:43;;;;;;;;;;;24.70;99.90;;;;;;5027070;28;20012;-86
2021/09/01 12:03:10;;;;;;;;;;;24.60;99.90;;;;;;5006589;28;20417;-88
2021/09/01 12:05:36;;;;;;;;;;;24.60;99.90;;;;;;5028204;28;19979;-88
2021/09/01 12:08:02;;;;;;;;;;;24.70;99.90;;;;;;5024478;28;19909;-87
2021/09/01 12:10:29;;;;;;;;;;;24.80;99.90;;;;;;5013445;28;19939;-87
2021/09/01 12:13:00;;;;;;;;;;;24.90;99.90;;;;;;5008949;28;19913;-87
2021/09/01 12:15:25;;;;;;;;;;;25.10;99.90;;;;;;5027878;28;19929;-88
2021/09/01 12:18:20;;;;;;;;;;;25.20;99.90;;;;;;5012404;28;19913;-89
2021/09/01 12:20:53;;;;;;;;;;;25.30;99.90;;;;;;4998573;28;20336;-88
2021/09/01 12:23:19;;;;;;;;;;;25.20;99.90;;;;;;5021844;28;19917;-90
2021/09/01 12:25:47;;;;;;;;;;;25.40;99.90;;;;;;5020856;28;19924;-89
2021/09/01 12:28:14;;;;;;;;;;;25.40;99.90;;;;;;5011626;28;19909;-88
2021/09/01 12:30:41;;;;;;;;;;;25.50;99.90;;;;;;5021367;28;19920;-88
2021/09/01 12:33:14;;;;;;;;;;;25.70;99.90;;;;;;5011051;28;19916;-88
2021/09/01 12:35:39;;;;;;;;;;;25.80;99.90;;;;;;5024866;28;19917;-88
2021/09/01 12:38:07;;;;;;;;;;;25.80;99.90;;;;;;5024612;28;19939;-88
2021/09/01 12:40:34;;;;;;;;;;;25.80;99.90;;;;;;5028164;28;20000;-88
2021/09/01 12:43:05;;;;;;;;;;;26.20;99.90;;;;;;5026180;28;19916;-88
2021/09/01 12:45:32;;;;;;;;;;;25.80;99.90;;;;;;5023960;28;19921;-87
2021/09/01 12:47:58;;;;;;;;;;;25.80;99.90;;;;;;5018394;28;20416;-87
2021/09/01 12:50:31;;;;;;;;;;;26.20;99.90;;;;;;5024669;28;19908;-87
2021/09/01 12:52:57;;;;;;;;;;;26.20;99.90;;;;;;5004882;28;20292;-87
2021/09/01 12:55:30;;;;;;;;;;;26.50;99.90;;;;;;5006106;28;20000;-87
2021/09/01 12:57:55;;;;;;;;;;;26.40;99.90;;;;;;5011863;28;20370;-86
2021/09/01 13:00:21;;;;;;;;;;;26.40;99.90;;;;;;5022250;28;19919;-86
2021/09/01 13:02:48;;;;;;;;;;;26.20;99.90;;;;;;5024442;28;19913;-86
2021/09/01 13:05:17;;;;;;;;;;;26.40;99.90;;;;;;5007395;28;19918;-87
2021/09/01 13:07:45;;;;;;;;;;;26.20;99.90;;;;;;5030352;28;20262;-86
2021/09/01 13:10:11;;;;;;;;;;;26.30;99.90;;;;;;5024575;28;19953;-86
2021/09/01 13:12:37;;;;;;;;;;;26.30;99.90;;;;;;5025842;28;19909;-86
2021/09/01 13:15:03;;;;;;;;;;;26.40;99.90;;;;;;5021138;28;19940;-85
2021/09/01 13:17:28;;;;;;;;;;;26.40;99.90;;;;;;5024110;28;20008;-86
2021/09/01 13:19:54;;;;;;;;;;;26.30;99.90;;;;;;5015981;28;19937;-86
2021/09/01 13:22:19;;;;;;;;;;;26.30;99.90;;;;;;5023060;28;19924;-87
2021/09/01 13:24:45;;;;;;;;;;;26.20;99.90;;;;;;5020455;28;19956;-86
2021/09/01 13:27:10;;;;;;;;;;;26.40;99.90;;;;;;5023192;28;20001;-86
2021/09/01 13:29:36;;;;;;;;;;;26.30;99.90;;;;;;5006328;28;20448;-82
2021/09/01 13:32:01;;;;;;;;;;;26.70;99.90;;;;;;5023355;28;20004;-82
2021/09/01 13:34:27;;;;;;;;;;;27.30;99.90;;;;;;5024043;28;19959;-82
2021/09/01 13:36:52;;;;;;;54.43;51.80;;;27.60;99.90;;;;;;5023149;28;20282;-80
2021/09/01 13:39:18;;;;;;;11.20;7.27;;;28.30;99.90;;;;;;5019659;28;20220;-80
2021/09/01 13:41:47;;;;;;;6.10;5.57;;;28.90;99.90;;;;;;5019731;28;20714;-80
2021/09/01 13:44:14;;;;;;;6.57;5.97;;;28.80;99.90;;;;;;5023205;28;20200;-80
2021/09/01 13:46:42;;;;;;;6.87;5.80;;;28.70;99.90;;;;;;5021805;28;20634;-79
2021/09/01 13:49:08;;;;;;;6.00;5.50;;;28.80;99.90;;;;;;5017411;28;20905;-79
2021/09/01 13:51:34;;;;;;;6.37;5.87;;;28.90;99.90;;;;;;4997542;28;20650;-78
2021/09/01 13:54:03;;;;;;;6.33;5.83;;;29.20;99.90;;;;;;5020161;28;20613;-78
2021/09/01 13:56:30;;;;;;;5.80;5.40;;;29.10;99.90;;;;;;5021174;28;20228;-79
2021/09/01 13:58:56;;;;;;;7.10;6.50;;;28.90;99.90;;;;;;5025258;28;20646;-78
2021/09/01 14:01:22;;;;;;;7.20;6.50;;;29.00;99.90;;;;;;5023390;28;21177;-79
2021/09/01 14:03:49;;;;;;;7.00;6.40;;;28.80;99.90;;;;;;5021856;28;20633;-80
2021/09/01 14:06:15;;;;;;;6.70;6.10;;;28.80;99.90;;;;;;5029330;28;20348;-81
2021/09/01 14:08:44;;;;;;;7.03;6.40;;;28.80;99.90;;;;;;5007813;28;20624;-79
2021/09/01 14:11:10;;;;;;;7.60;6.90;;;28.70;99.90;;;;;;5026717;28;20639;-79